createdAt,value
2019-02-15T00:01:09.378Z,99.90
2019-02-15T00:03:25.109Z,99.90
2019-02-15T00:05:41.669Z,99.90
2019-02-15T00:07:58.059Z,99.90
2019-02-15T00:10:15.190Z,99.90
2019-02-15T00:12:31.376Z,99.90
2019-02-15T00:14:47.431Z,99.90
2019-02-15T00:17:03.598Z,99.90
2019-02-15T00:22:09.956Z,99.90
2019-02-15T00:24:26.599Z,99.90
2019-02-15T00:26:42.659Z,99.90
2019-02-15T00:28:58.802Z,99.90
2019-02-15T00:31:18.059Z,99.90
2019-02-15T00:33:34.087Z,99.90
2019-02-15T00:35:51.079Z,99.90
2019-02-15T00:38:06.959Z,99.90
2019-02-15T00:40:22.500Z,99.90
2019-02-15T00:42:38.137Z,99.90
2019-02-15T00:44:54.760Z,99.90
2019-02-15T00:50:23.015Z,99.90
2019-02-15T00:52:58.246Z,99.90
2019-02-15T00:55:32.671Z,99.90
2019-02-15T00:58:14.127Z,99.90
2019-02-15T01:00:49.744Z,99.90
2019-02-15T01:03:24.940Z,99.90
2019-02-15T01:06:00.080Z,99.90
2019-02-15T01:08:22.095Z,99.90
2019-02-15T01:10:56.940Z,99.90
2019-02-15T01:13:16.719Z,99.90
2019-02-15T01:15:32.292Z,99.90
2019-02-15T01:17:47.971Z,99.90
2019-02-15T01:20:03.926Z,99.90
2019-02-15T01:22:20.392Z,99.90
2019-02-15T01:24:36.341Z,99.90
2019-02-15T01:26:55.735Z,99.90
2019-02-15T01:29:30.405Z,99.90
2019-02-15T01:32:05.232Z,99.90
2019-02-15T01:34:40.247Z,99.90
2019-02-15T01:37:15.059Z,99.90
2019-02-15T01:39:52.516Z,99.90
2019-02-15T01:42:27.075Z,99.90
2019-02-15T01:45:04.991Z,99.90
2019-02-15T01:47:24.631Z,99.90
2019-02-15T01:49:40.276Z,99.90
2019-02-15T01:51:56.281Z,99.90
2019-02-15T01:54:12.359Z,99.90
2019-02-15T01:56:28.547Z,99.90
2019-02-15T01:58:44.483Z,99.90
2019-02-15T02:01:00.165Z,99.90
2019-02-15T02:03:15.735Z,99.90
2019-02-15T02:05:31.687Z,99.90
2019-02-15T02:07:47.485Z,99.90
2019-02-15T02:10:03.551Z,99.90
2019-02-15T02:12:19.119Z,99.90
2019-02-15T02:14:35.750Z,99.90
2019-02-15T02:16:51.851Z,99.90
2019-02-15T02:19:07.826Z,99.90
2019-02-15T02:21:23.177Z,99.90
2019-02-15T02:23:38.963Z,99.90
2019-02-15T02:25:55.089Z,99.90
2019-02-15T02:28:10.625Z,99.90
2019-02-15T02:30:26.527Z,99.90
2019-02-15T02:32:42.625Z,99.90
2019-02-15T02:34:58.615Z,99.90
2019-02-15T02:37:14.469Z,99.90
2019-02-15T02:39:30.451Z,99.90
2019-02-15T02:41:46.321Z,99.90
2019-02-15T02:44:03.007Z,99.90
2019-02-15T02:46:19.104Z,99.90
2019-02-15T02:48:35.450Z,99.90
2019-02-15T02:50:51.137Z,99.90
2019-02-15T02:53:06.985Z,99.90
2019-02-15T02:55:22.885Z,99.90
2019-02-15T02:57:40.441Z,99.90
2019-02-15T02:59:57.000Z,99.90
2019-02-15T03:02:13.545Z,99.90
2019-02-15T03:04:30.415Z,99.90
2019-02-15T03:06:45.883Z,99.90
2019-02-15T03:09:01.999Z,99.90
2019-02-15T03:11:17.945Z,99.90
2019-02-15T03:13:34.133Z,99.90
2019-02-15T03:15:49.967Z,99.90
2019-02-15T03:18:05.705Z,99.90
2019-02-15T03:20:30.849Z,99.90
2019-02-15T03:22:39.368Z,99.90
2019-02-15T03:24:54.039Z,99.90
2019-02-15T03:27:17.697Z,99.90
2019-02-15T03:29:41.272Z,99.90
2019-02-15T03:32:05.017Z,99.90
2019-02-15T03:34:28.155Z,99.90
2019-02-15T03:49:52.771Z,99.90
2019-02-15T03:52:08.991Z,99.90
2019-02-15T03:54:24.868Z,99.90
2019-02-15T03:56:41.331Z,99.90
2019-02-15T03:58:57.206Z,99.90
2019-02-15T04:01:13.192Z,99.90
2019-02-15T04:03:29.229Z,99.90
2019-02-15T04:05:46.020Z,99.90
2019-02-15T04:08:02.417Z,99.90
2019-02-15T04:10:19.087Z,99.90
2019-02-15T04:12:34.922Z,99.90
2019-02-15T04:14:50.860Z,99.90
2019-02-15T04:17:06.788Z,99.90
2019-02-15T04:19:23.199Z,99.90
2019-02-15T04:21:39.380Z,99.90
2019-02-15T04:23:55.487Z,99.90
2019-02-15T04:26:12.342Z,99.90
2019-02-15T04:28:28.732Z,99.90
2019-02-15T04:33:02.401Z,99.90
2019-02-15T04:35:18.371Z,99.90
2019-02-15T04:37:34.965Z,99.90
2019-02-15T04:39:51.367Z,99.90
2019-02-15T04:42:08.039Z,99.90
2019-02-15T04:44:24.273Z,99.90
2019-02-15T04:46:41.178Z,99.90
2019-02-15T04:48:56.764Z,99.90
2019-02-15T04:51:13.191Z,99.90
2019-02-15T04:53:29.187Z,99.90
2019-02-15T04:55:44.972Z,99.90
2019-02-15T04:58:02.030Z,99.90
2019-02-15T05:00:17.939Z,99.90
2019-02-15T05:02:34.604Z,99.90
2019-02-15T05:04:51.337Z,99.90
2019-02-15T05:07:07.551Z,99.90
2019-02-15T05:09:23.944Z,99.90
2019-02-15T05:11:40.145Z,99.90
2019-02-15T05:13:56.186Z,99.90
2019-02-15T05:16:13.359Z,99.90
2019-02-15T05:18:29.311Z,99.90
2019-02-15T05:20:45.027Z,99.90
2019-02-15T05:23:01.182Z,99.90
2019-02-15T05:27:35.111Z,99.90
2019-02-15T05:29:51.568Z,99.90
2019-02-15T05:34:24.340Z,99.90
2019-02-15T05:36:40.891Z,99.90
2019-02-15T05:38:57.559Z,99.90
2019-02-15T05:41:13.452Z,99.90
2019-02-15T05:43:30.055Z,99.90
2019-02-15T05:45:46.213Z,99.90
2019-02-15T05:50:19.559Z,99.90
2019-02-15T05:54:52.355Z,99.90
2019-02-15T05:57:09.658Z,99.90
2019-02-15T05:59:25.625Z,99.90
2019-02-15T06:01:42.365Z,99.90
2019-02-15T06:03:58.479Z,99.90
2019-02-15T06:06:14.380Z,99.90
2019-02-15T06:08:31.355Z,99.90
2019-02-15T06:10:47.467Z,99.90
2019-02-15T06:13:03.554Z,99.90
2019-02-15T06:15:20.176Z,99.90
2019-02-15T06:17:36.229Z,99.90
2019-02-15T06:19:51.992Z,99.90
2019-02-15T06:22:07.464Z,99.90
2019-02-15T06:24:24.278Z,99.90
2019-02-15T06:26:40.482Z,99.90
2019-02-15T06:28:57.557Z,99.90
2019-02-15T06:31:14.353Z,99.90
2019-02-15T06:33:29.792Z,99.90
2019-02-15T06:35:50.280Z,99.90
2019-02-15T06:38:06.914Z,99.90
2019-02-15T06:40:23.488Z,99.90
2019-02-15T06:42:39.914Z,99.90
2019-02-15T06:44:55.932Z,99.90
2019-02-15T06:47:12.395Z,99.90
2019-02-15T06:49:27.859Z,99.90
2019-02-15T06:51:44.337Z,99.90
2019-02-15T06:54:00.127Z,99.90
2019-02-15T06:56:15.975Z,99.90
2019-02-15T06:58:32.499Z,99.90
2019-02-15T07:01:10.504Z,99.90
2019-02-15T07:03:51.270Z,99.90
2019-02-15T07:06:07.190Z,99.90
2019-02-15T07:08:24.009Z,99.90
2019-02-15T07:12:57.399Z,99.90
2019-02-15T07:15:13.572Z,99.90
2019-02-15T07:17:29.607Z,99.90
2019-02-15T07:19:45.412Z,99.90
2019-02-15T07:22:01.843Z,99.90
2019-02-15T07:24:18.826Z,99.90
2019-02-15T07:26:34.777Z,99.90
2019-02-15T07:28:51.095Z,99.90
2019-02-15T07:31:06.931Z,99.90
2019-02-15T07:33:23.575Z,99.90
2019-02-15T07:35:39.969Z,99.90
2019-02-15T07:37:56.188Z,99.90
2019-02-15T07:40:12.854Z,99.90
2019-02-15T07:42:29.490Z,99.90
2019-02-15T07:44:45.424Z,99.90
2019-02-15T07:47:01.223Z,99.90
2019-02-15T07:49:26.395Z,99.90
2019-02-15T07:51:36.118Z,99.90
2019-02-15T07:53:51.856Z,99.90
2019-02-15T07:56:08.314Z,99.90
2019-02-15T07:58:23.911Z,99.90
2019-02-15T08:00:40.773Z,99.90
2019-02-15T08:02:56.399Z,99.90
2019-02-15T08:05:12.879Z,99.90
2019-02-15T08:07:29.710Z,99.90
2019-02-15T08:09:45.867Z,99.90
2019-02-15T08:12:02.167Z,99.90
2019-02-15T08:14:18.921Z,99.90
2019-02-15T08:16:36.091Z,99.90
2019-02-15T08:18:52.375Z,99.90
2019-02-15T08:21:08.271Z,99.90
2019-02-15T08:23:24.734Z,99.90
2019-02-15T08:25:41.491Z,99.90
2019-02-15T08:27:57.449Z,99.90
2019-02-15T08:30:13.336Z,99.90
2019-02-15T08:32:29.602Z,99.90
2019-02-15T08:34:45.654Z,99.90
2019-02-15T08:37:01.420Z,99.90
2019-02-15T08:39:18.240Z,99.90
2019-02-15T08:41:34.325Z,99.90
2019-02-15T08:43:50.292Z,99.90
2019-02-15T08:46:06.380Z,99.90
2019-02-15T08:48:23.304Z,99.90
2019-02-15T08:50:39.395Z,99.90
2019-02-15T08:52:55.901Z,99.90
2019-02-15T08:55:12.069Z,99.90
2019-02-15T08:57:28.136Z,99.90
2019-02-15T08:59:44.308Z,99.90
2019-02-15T09:04:50.338Z,99.90
2019-02-15T09:07:07.016Z,99.90
2019-02-15T09:09:23.283Z,99.90
2019-02-15T09:11:39.239Z,99.90
2019-02-15T09:13:55.019Z,99.90
2019-02-15T09:16:11.440Z,99.90
2019-02-15T09:18:27.204Z,99.90
2019-02-15T09:20:44.018Z,99.90
2019-02-15T09:23:00.131Z,99.90
2019-02-15T09:25:16.080Z,99.90
2019-02-15T09:30:18.927Z,99.90
2019-02-15T09:32:35.074Z,99.90
2019-02-15T09:34:51.028Z,99.90
2019-02-15T09:37:07.180Z,99.90
2019-02-15T09:39:23.382Z,99.90
2019-02-15T09:41:39.636Z,99.90
2019-02-15T09:43:55.139Z,99.90
2019-02-15T09:46:19.585Z,99.90
2019-02-15T09:48:29.378Z,99.90
2019-02-15T09:50:44.920Z,99.90
2019-02-15T09:53:00.327Z,99.90
2019-02-15T09:55:15.760Z,99.90
2019-02-15T09:57:31.272Z,99.90
2019-02-15T09:59:46.676Z,99.90
2019-02-15T10:02:02.900Z,99.90
2019-02-15T10:04:18.432Z,99.90
2019-02-15T10:06:33.975Z,99.90
2019-02-15T10:08:49.856Z,99.90
2019-02-15T10:11:06.084Z,99.90
2019-02-15T10:13:21.936Z,99.90
2019-02-15T10:15:38.874Z,99.90
2019-02-15T10:17:54.369Z,99.90
2019-02-15T10:20:09.735Z,99.90
2019-02-15T10:22:26.511Z,99.90
2019-02-15T10:24:42.624Z,99.90
2019-02-15T10:26:58.868Z,99.90
2019-02-15T10:29:14.796Z,99.90
2019-02-15T10:31:31.362Z,99.90
2019-02-15T10:33:47.388Z,99.90
2019-02-15T10:36:03.853Z,99.90
2019-02-15T10:38:19.517Z,99.90
2019-02-15T10:40:36.013Z,99.90
2019-02-15T10:42:51.465Z,99.90
2019-02-15T10:45:07.755Z,99.90
2019-02-15T10:47:25.241Z,99.90
2019-02-15T10:49:40.967Z,99.90
2019-02-15T10:51:56.258Z,99.90
2019-02-15T10:54:12.239Z,99.90
2019-02-15T10:56:28.208Z,99.90
2019-02-15T10:58:44.169Z,99.90
2019-02-15T11:01:00.631Z,99.90
2019-02-15T11:03:16.471Z,99.90
2019-02-15T11:05:32.795Z,99.90
2019-02-15T11:07:49.099Z,99.90
2019-02-15T11:10:04.778Z,99.90
2019-02-15T11:12:20.946Z,99.90
2019-02-15T11:14:36.812Z,99.90
2019-02-15T11:16:53.067Z,99.90
2019-02-15T11:19:09.899Z,99.90
2019-02-15T11:21:25.807Z,99.90
2019-02-15T11:23:41.815Z,99.90
2019-02-15T11:25:58.575Z,99.90
2019-02-15T11:28:14.196Z,99.90
2019-02-15T11:30:29.771Z,99.90
2019-02-15T11:32:45.851Z,99.90
2019-02-15T11:35:01.449Z,99.90
2019-02-15T11:37:17.834Z,99.90
2019-02-15T11:41:32.851Z,99.90
2019-02-15T11:43:37.578Z,99.90
2019-02-15T11:45:41.787Z,99.90
2019-02-15T11:47:47.433Z,99.90
2019-02-15T11:49:51.699Z,99.90
2019-02-15T11:51:54.643Z,99.90
2019-02-15T11:53:58.665Z,99.90
2019-02-15T11:56:03.287Z,99.90
2019-02-15T11:58:07.771Z,99.90
2019-02-15T12:00:15.606Z,99.90
2019-02-15T12:02:19.795Z,99.90
2019-02-15T12:04:24.323Z,99.90
2019-02-15T12:06:28.378Z,99.90
2019-02-15T12:08:32.301Z,99.90
2019-02-15T12:10:36.282Z,99.90
2019-02-15T12:12:40.231Z,99.90
2019-02-15T12:14:44.759Z,99.90
2019-02-15T12:16:49.251Z,99.90
2019-02-15T12:18:53.706Z,99.90
2019-02-15T12:20:57.749Z,99.90
2019-02-15T12:23:02.731Z,99.90
2019-02-15T12:25:07.366Z,99.30
2019-02-15T12:27:11.615Z,99.50
2019-02-15T12:29:15.830Z,99.90
2019-02-15T12:31:20.039Z,99.90
2019-02-15T12:33:24.700Z,99.90
2019-02-15T12:35:28.944Z,99.90
2019-02-15T12:37:33.875Z,99.60
2019-02-15T12:39:38.972Z,99.30
2019-02-15T12:41:43.150Z,99.40
2019-02-15T12:43:47.395Z,99.20
2019-02-15T12:45:51.465Z,98.70
2019-02-15T12:47:55.428Z,98.70
2019-02-15T12:49:59.770Z,98.10
2019-02-15T12:52:03.888Z,98.30
2019-02-15T12:54:08.587Z,98.70
2019-02-15T12:56:13.439Z,98.20
2019-02-15T12:58:18.667Z,97.50
2019-02-15T13:00:23.643Z,97.90
2019-02-15T13:02:28.063Z,96.80
2019-02-15T13:04:32.035Z,97.20
2019-02-15T13:06:36.875Z,96.60
2019-02-15T13:08:41.100Z,95.80
2019-02-15T13:10:45.529Z,94.70
2019-02-15T13:12:49.743Z,95.20
2019-02-15T13:14:54.455Z,94.60
2019-02-15T13:16:58.993Z,94.70
2019-02-15T13:19:04.000Z,95.00
2019-02-15T13:21:08.243Z,95.20
2019-02-15T13:23:12.738Z,95.80
2019-02-15T13:25:17.265Z,95.80
2019-02-15T13:27:22.191Z,95.60
2019-02-15T13:29:26.679Z,94.70
2019-02-15T13:31:30.699Z,93.90
2019-02-15T13:33:35.288Z,93.50
2019-02-15T13:35:39.915Z,93.30
2019-02-15T13:37:44.585Z,93.30
2019-02-15T13:39:49.168Z,93.40
2019-02-15T13:41:53.141Z,93.60
2019-02-15T13:43:58.369Z,94.20
2019-02-15T13:46:02.770Z,94.30
2019-02-15T13:48:06.871Z,94.40
2019-02-15T13:50:11.871Z,94.50
2019-02-15T13:52:16.164Z,94.10
2019-02-15T13:54:20.894Z,93.80
2019-02-15T13:56:25.436Z,93.90
2019-02-15T13:58:30.631Z,93.00
2019-02-15T14:00:35.995Z,93.40
2019-02-15T14:02:40.303Z,93.90
2019-02-15T14:04:44.539Z,94.40
2019-02-15T14:06:55.221Z,95.00
2019-02-15T14:08:59.359Z,95.40
2019-02-15T14:11:03.654Z,93.90
2019-02-15T14:13:07.843Z,94.10
2019-02-15T14:15:12.950Z,94.80
2019-02-15T14:17:17.151Z,95.10
2019-02-15T14:19:23.491Z,94.80
2019-02-15T14:21:27.676Z,94.50
2019-02-15T14:23:31.875Z,94.30
2019-02-15T14:25:36.555Z,94.30
2019-02-15T14:27:40.528Z,94.40
2019-02-15T14:29:45.555Z,94.20
2019-02-15T14:31:49.991Z,94.00
2019-02-15T14:33:54.863Z,94.20
2019-02-15T14:35:59.753Z,94.20
2019-02-15T14:38:04.512Z,94.40
2019-02-15T14:40:11.187Z,93.60
2019-02-15T14:42:15.370Z,93.30
2019-02-15T14:44:19.822Z,93.50
2019-02-15T14:46:24.236Z,93.60
2019-02-15T14:48:28.406Z,93.80
2019-02-15T14:50:32.287Z,93.60
2019-02-15T14:52:37.603Z,94.10
2019-02-15T14:54:42.520Z,94.00
2019-02-15T14:56:47.334Z,92.90
2019-02-15T14:58:51.511Z,92.60
2019-02-15T15:00:55.723Z,92.70
2019-02-15T15:03:00.259Z,93.00
2019-02-15T15:05:05.410Z,93.30
2019-02-15T15:07:09.502Z,93.30
2019-02-15T15:09:14.687Z,93.40
2019-02-15T15:11:18.891Z,93.60
2019-02-15T15:13:24.281Z,93.60
2019-02-15T15:15:28.818Z,93.30
2019-02-15T15:17:33.038Z,93.10
2019-02-15T15:19:37.292Z,93.10
2019-02-15T15:21:42.107Z,93.30
2019-02-15T15:23:46.727Z,92.60
2019-02-15T15:25:50.645Z,92.70
2019-02-15T15:27:54.849Z,92.50
2019-02-15T15:29:59.071Z,92.40
2019-02-15T15:32:03.009Z,91.90
2019-02-15T15:34:07.034Z,91.70
2019-02-15T15:36:11.485Z,91.30
2019-02-15T15:38:15.343Z,91.30
2019-02-15T15:40:20.219Z,90.90
2019-02-15T15:42:24.201Z,91.00
2019-02-15T15:44:28.027Z,91.00
2019-02-15T15:46:32.397Z,90.70
2019-02-15T15:48:37.747Z,90.20
2019-02-15T15:50:41.686Z,90.00
2019-02-15T15:52:46.935Z,89.30
2019-02-15T15:54:51.749Z,89.00
2019-02-15T15:56:55.660Z,87.40
2019-02-15T15:58:59.868Z,87.10
2019-02-15T16:01:05.327Z,86.00
2019-02-15T16:03:09.944Z,86.80
2019-02-15T16:05:14.438Z,85.30
2019-02-15T16:07:19.065Z,84.70
2019-02-15T16:09:23.983Z,84.00
2019-02-15T16:11:28.900Z,83.00
2019-02-15T16:13:33.550Z,82.90
2019-02-15T16:15:37.421Z,82.90
2019-02-15T16:17:42.196Z,82.40
2019-02-15T16:19:49.363Z,83.10
2019-02-15T16:21:52.295Z,83.00
2019-02-15T16:23:57.236Z,83.20
2019-02-15T16:26:02.311Z,83.10
2019-02-15T16:28:07.232Z,83.40
2019-02-15T16:30:12.235Z,83.20
2019-02-15T16:32:16.414Z,84.00
2019-02-15T16:34:21.055Z,84.50
2019-02-15T16:36:26.155Z,84.70
2019-02-15T16:38:30.128Z,85.30
2019-02-15T16:40:34.298Z,85.50
2019-02-15T16:42:38.152Z,85.80
2019-02-15T16:44:42.652Z,86.70
2019-02-15T16:46:47.095Z,86.70
2019-02-15T16:48:51.995Z,87.10
2019-02-15T16:50:55.855Z,87.50
2019-02-15T16:53:00.303Z,87.80
2019-02-15T16:55:12.438Z,88.00
2019-02-15T16:57:11.208Z,88.70
2019-02-15T16:59:15.148Z,89.30
2019-02-15T17:01:19.797Z,89.50
2019-02-15T17:03:23.979Z,89.70
2019-02-15T17:05:28.155Z,89.90
2019-02-15T17:07:33.075Z,90.40
2019-02-15T17:09:37.778Z,90.40
2019-02-15T17:11:41.731Z,90.40
2019-02-15T17:13:45.676Z,90.80
2019-02-15T17:15:49.742Z,90.80
2019-02-15T17:17:54.125Z,91.10
2019-02-15T17:19:57.987Z,91.00
2019-02-15T17:22:03.047Z,91.00
2019-02-15T17:24:07.635Z,91.80
2019-02-15T17:26:11.795Z,91.60
2019-02-15T17:28:16.528Z,91.90
2019-02-15T17:30:20.703Z,91.90
2019-02-15T17:32:25.463Z,92.90
2019-02-15T17:34:29.578Z,92.80
2019-02-15T17:36:34.503Z,93.10
2019-02-15T17:38:38.923Z,92.90
2019-02-15T17:40:42.862Z,92.70
2019-02-15T17:42:47.161Z,92.90
2019-02-15T17:44:52.434Z,93.00
2019-02-15T17:46:57.060Z,93.20
2019-02-15T17:49:05.039Z,93.10
2019-02-15T17:51:09.610Z,93.60
2019-02-15T17:53:14.179Z,93.60
2019-02-15T17:55:18.228Z,93.80
2019-02-15T17:57:23.554Z,93.90
2019-02-15T17:59:28.099Z,94.20
2019-02-15T18:01:32.902Z,94.50
2019-02-15T18:03:37.040Z,94.80
2019-02-15T18:05:41.567Z,95.00
2019-02-15T18:07:47.314Z,95.20
2019-02-15T18:09:52.743Z,95.40
2019-02-15T18:11:56.943Z,95.60
2019-02-15T18:14:01.387Z,96.10
2019-02-15T18:16:10.431Z,96.20
2019-02-15T18:18:15.231Z,96.50
2019-02-15T18:20:20.389Z,96.80
2019-02-15T18:22:24.245Z,97.00
2019-02-15T18:24:28.394Z,97.20
2019-02-15T18:26:34.362Z,97.40
2019-02-15T18:28:38.396Z,97.60
2019-02-15T18:30:42.410Z,97.70
2019-02-15T18:32:46.327Z,98.00
2019-02-15T18:34:55.024Z,98.00
2019-02-15T18:37:02.786Z,98.60
2019-02-15T18:39:09.298Z,98.80
2019-02-15T18:41:15.155Z,98.70
2019-02-15T18:43:20.045Z,99.00
2019-02-15T18:45:23.971Z,99.00
2019-02-15T18:47:29.429Z,99.30
2019-02-15T18:49:33.954Z,99.40
2019-02-15T18:51:37.941Z,99.80
2019-02-15T18:53:42.124Z,99.90
2019-02-15T18:55:46.356Z,99.90
2019-02-15T18:57:50.626Z,99.90
2019-02-15T18:59:55.002Z,99.90
2019-02-15T19:01:59.282Z,99.90
2019-02-15T19:04:04.643Z,99.90
2019-02-15T19:06:09.774Z,99.90
2019-02-15T19:08:13.831Z,99.90
2019-02-15T19:10:18.351Z,99.90
2019-02-15T19:12:23.079Z,99.90
2019-02-15T19:14:28.007Z,99.90
2019-02-15T19:16:31.980Z,99.90
2019-02-15T19:18:36.010Z,99.90
2019-02-15T19:20:40.602Z,99.90
2019-02-15T19:22:45.620Z,99.90
2019-02-15T19:24:50.491Z,99.90
2019-02-15T19:26:55.655Z,99.90
2019-02-15T19:28:59.687Z,99.90
2019-02-15T19:31:05.000Z,99.90
2019-02-15T19:33:13.192Z,99.90
2019-02-15T19:35:18.348Z,99.90
2019-02-15T19:37:22.807Z,99.90
2019-02-15T19:39:27.329Z,99.90
2019-02-15T19:41:31.323Z,99.90
2019-02-15T19:43:38.132Z,99.90
2019-02-15T19:45:42.672Z,99.90
2019-02-15T19:47:47.211Z,99.90
2019-02-15T19:49:51.559Z,99.90
2019-02-15T19:51:56.188Z,99.90
2019-02-15T19:54:00.689Z,99.90
2019-02-15T19:56:04.951Z,99.90
2019-02-15T19:58:09.765Z,99.90
2019-02-15T20:00:15.862Z,99.90
2019-02-15T20:02:21.781Z,99.90
2019-02-15T20:04:26.400Z,99.90
2019-02-15T20:06:31.820Z,99.90
2019-02-15T20:08:35.717Z,99.90
2019-02-15T20:10:40.717Z,99.90
2019-02-15T20:12:44.568Z,99.90
2019-02-15T20:14:49.019Z,99.90
2019-02-15T20:16:53.247Z,99.90
2019-02-15T20:18:58.284Z,99.90
2019-02-15T20:21:02.517Z,99.90
2019-02-15T20:23:07.435Z,99.90
2019-02-15T20:25:12.456Z,99.90
2019-02-15T20:27:16.575Z,99.90
2019-02-15T20:29:20.691Z,99.90
2019-02-15T20:31:24.811Z,99.90
2019-02-15T20:33:28.925Z,99.90
2019-02-15T20:35:34.284Z,99.90
2019-02-15T20:37:38.535Z,99.90
2019-02-15T20:39:42.747Z,99.90
2019-02-15T20:41:47.602Z,99.90
2019-02-15T20:43:52.101Z,99.90
2019-02-15T20:45:56.616Z,99.90
2019-02-15T20:48:00.859Z,99.90
2019-02-15T20:50:05.089Z,99.90
2019-02-15T20:52:09.203Z,99.90
2019-02-15T20:54:13.215Z,99.90
2019-02-15T20:56:18.255Z,99.90
2019-02-15T20:58:22.223Z,99.90
2019-02-15T21:00:26.744Z,99.90
2019-02-15T21:02:31.175Z,99.90
2019-02-15T21:04:35.387Z,99.90
2019-02-15T21:06:39.579Z,99.90
2019-02-15T21:08:43.675Z,99.90
2019-02-15T21:10:54.506Z,99.90
2019-02-15T21:12:55.211Z,99.90
2019-02-15T21:14:59.657Z,99.90
2019-02-15T21:17:04.189Z,99.90
2019-02-15T21:19:08.947Z,99.90
2019-02-15T21:21:13.355Z,99.90
2019-02-15T21:23:17.523Z,99.90
2019-02-15T21:25:21.739Z,99.90
2019-02-15T21:27:26.311Z,99.90
2019-02-15T21:29:31.255Z,99.90
2019-02-15T21:31:35.178Z,99.90
2019-02-15T21:33:48.244Z,99.90
2019-02-15T21:35:52.368Z,99.90
2019-02-15T21:37:56.719Z,99.90
2019-02-15T21:40:01.249Z,99.90
2019-02-15T21:42:08.778Z,99.90
2019-02-15T21:44:13.247Z,99.90
2019-02-15T21:46:17.851Z,99.90
2019-02-15T21:48:22.403Z,99.90
2019-02-15T21:50:27.451Z,99.90
2019-02-15T21:52:31.441Z,99.90
2019-02-15T21:54:36.645Z,99.90
2019-02-15T21:56:45.642Z,99.90
2019-02-15T21:58:50.539Z,99.90
2019-02-15T22:00:54.962Z,99.90
2019-02-15T22:02:58.867Z,99.90
2019-02-15T22:05:05.498Z,99.90
2019-02-15T22:07:19.598Z,99.90
2019-02-15T22:09:23.895Z,99.90
2019-02-15T22:11:28.527Z,99.90
2019-02-15T22:13:34.919Z,99.90
2019-02-15T22:15:39.624Z,99.90
2019-02-15T22:17:43.531Z,99.90
2019-02-15T22:19:48.510Z,99.90
2019-02-15T22:21:53.078Z,99.90
2019-02-15T22:23:58.111Z,99.90
2019-02-15T22:26:02.289Z,99.90
2019-02-15T22:28:06.203Z,99.90
2019-02-15T22:30:12.207Z,99.90
2019-02-15T22:32:16.565Z,99.90
2019-02-15T22:34:20.718Z,99.90
2019-02-15T22:36:24.543Z,99.90
2019-02-15T22:38:28.770Z,99.90
2019-02-15T22:40:37.175Z,99.90
2019-02-15T22:42:41.411Z,99.90
2019-02-15T22:44:47.720Z,99.90
2019-02-15T22:46:52.203Z,99.90
2019-02-15T22:48:56.459Z,99.90
2019-02-15T22:51:00.665Z,99.90
2019-02-15T22:53:05.011Z,99.90
2019-02-15T22:55:09.019Z,99.90
2019-02-15T22:57:13.014Z,99.90
2019-02-15T22:59:18.107Z,99.90
2019-02-15T23:01:23.023Z,99.90
2019-02-15T23:03:27.347Z,99.90
2019-02-15T23:05:31.816Z,99.90
2019-02-15T23:07:36.874Z,99.90
2019-02-15T23:09:41.516Z,99.90
2019-02-15T23:11:46.158Z,99.90
2019-02-15T23:13:50.814Z,99.90
2019-02-15T23:15:55.363Z,99.90
2019-02-15T23:17:59.547Z,99.90
2019-02-15T23:20:05.361Z,99.90
2019-02-15T23:22:09.503Z,99.90
2019-02-15T23:24:13.844Z,99.90
2019-02-15T23:26:17.709Z,99.90
2019-02-15T23:28:21.672Z,99.90
2019-02-15T23:30:25.844Z,99.90
2019-02-15T23:32:29.987Z,99.90
2019-02-15T23:34:34.471Z,99.90
2019-02-15T23:36:38.697Z,99.90
2019-02-15T23:38:43.106Z,99.90
2019-02-15T23:40:47.485Z,99.90
2019-02-15T23:42:51.972Z,99.90
2019-02-15T23:44:55.879Z,99.90
2019-02-15T23:47:00.352Z,99.90
2019-02-15T23:49:04.763Z,99.90
2019-02-15T23:51:09.109Z,99.90
2019-02-15T23:53:13.234Z,99.90
2019-02-15T23:55:17.423Z,99.90
2019-02-15T23:57:22.178Z,99.90
2019-02-15T23:59:26.712Z,99.90
